Latest Weather Observations for Low Head

IDT60801

Issued at 3:31 pm EDT Tuesday 18 January 2022 (issued every 10 minutes, with the page automatically refreshed every 10 minutes)

About weather observations | Map of weather stations | Latest weather observations for TAS | Other Formats
Station Details ID: 091293 Name: LOW HEAD Lat: -41.05 Lon: 146.79 Height: 3.0 m
Data from the previous 72 hours. | See also: Recent months at Low Head
Date/Time
EDT
Temp
°C
App
Temp
°C
Dew
Point
°C
Rel
Hum
%
Delta-T
°C
Wind Press
QNH
hPa
Press
MSL
hPa
Rain since
9am
mm
Dir  Spd
km/h
Gust
km/h
Spd
kts
Gust
kts
18/03:30pm 20.2 17.5 14.6 70 3.3 N 22 28 12 15 1016.5 1016.5 0.0
18/03:00pm 21.0 18.8 14.9 68 3.6 N 20 26 11 14 1016.3 1016.3 0.0
18/02:30pm 21.0 18.7 15.8 72 3.1 N 22 26 12 14 1016.1 1016.1 0.0
18/02:00pm 19.8 17.2 14.8 73 2.9 N 22 28 12 15 1016.0 1016.0 0.0
18/01:30pm 21.4 20.0 15.5 69 3.5 N 17 20 9 11 1016.0 1016.0 0.0
18/01:00pm 21.2 18.9 14.6 66 3.9 N 20 22 11 12 1016.0 1016.0 0.0
18/12:30pm 21.0 18.7 14.6 67 3.7 N 20 22 11 12 1015.7 1015.7 0.0
18/12:00pm 21.0 18.9 14.6 67 3.7 NNW 19 22 10 12 1015.6 1015.6 0.0
18/11:30am 20.9 19.7 12.8 60 4.6 NE 11 19 6 10 1015.4 1015.4 0.0
18/11:00am 21.1 18.4 11.7 55 5.2 S 17 20 9 11 1015.5 1015.5 0.0
18/10:30am 20.3 16.8 11.0 55 5.1 S 20 24 11 13 1015.3 1015.3 0.0
18/10:00am 20.2 16.4 9.7 51 5.6 SSE 20 26 11 14 1015.0 1015.0 0.0
18/09:30am 19.3 15.6 10.3 56 4.8 SSE 20 30 11 16 1014.8 1014.8 0.0
18/09:00am 18.7 14.7 10.5 59 4.4 SSE 22 28 12 15 1014.5 1014.5 0.0
18/08:30am 17.7 13.2 10.1 61 4.0 S 24 30 13 16 1014.2 1014.2 0.0
18/08:00am 17.0 12.6 10.4 65 3.5 S 24 28 13 15 1013.8 1013.8 0.0
18/07:30am 16.0 12.2 11.0 72 2.7 S 22 26 12 14 1013.4 1013.4 0.0
18/07:00am 16.0 11.9 11.6 75 2.4 S 24 28 13 15 1013.0 1013.0 0.0
18/06:30am 15.6 11.4 11.2 75 2.4 S 24 30 13 16 1012.5 1012.5 0.0
18/06:00am 15.3 11.1 9.9 70 2.8 SSE 22 28 12 15 1012.2 1012.2 0.0
18/05:30am 15.3 11.1 11.1 76 2.2 SSE 24 30 13 16 1011.9 1011.9 0.0
18/05:00am 14.3 11.6 10.5 78 2.0 SSE 15 22 8 12 1011.5 1011.5 0.0
18/04:30am 15.5 11.7 11.3 76 2.3 S 22 26 12 14 1011.2 1011.2 0.0
18/04:00am 15.3 12.2 12.1 81 1.7 S 20 24 11 13 1010.9 1010.9 0.0
18/03:30am 15.1 12.6 12.4 84 1.5 SSE 17 24 9 13 1010.7 1010.7 0.0
18/03:00am 14.7 12.4 11.8 83 1.6 SE 15 19 8 10 1010.8 1010.8 0.0
18/02:30am 13.4 11.3 9.8 79 1.8 SSE 11 13 6 7 1010.7 1010.7 0.0
18/02:00am 14.6 13.2 12.1 85 1.4 S 11 13 6 7 1010.5 1010.5 0.0
18/01:30am 14.6 13.6 11.0 79 1.9 SE 7 13 4 7 1010.3 1010.3 0.0
18/01:00am 14.9 13.3 10.3 74 2.4 SSE 9 11 5 6 1010.2 1010.2 0.0
18/12:30am 16.0 13.9 9.9 67 3.2 S 11 15 6 8 1010.0 1010.0 0.0
18/12:00am 17.6 13.9 11.4 67 3.4 WSW 22 28 12 15 1009.6 1009.6 0.0
 
Date/Time
EDT
Temp
°C
App
Temp
°C
Dew
Point
°C
Rel
Hum
%
Delta-T
°C
Wind Press
QNH
hPa
Press
MSL
hPa
Rain since
9am
mm
Dir  Spd
km/h
Gust
km/h
Spd
kts
Gust
kts
17/11:30pm 17.9 13.1 11.7 67 3.4 WSW 28 33 15 18 1009.4 1009.4 0.0
17/11:00pm 18.0 12.5 12.5 70 3.1 W 33 39 18 21 1009.2 1009.2 0.0
17/10:30pm 18.2 11.2 12.4 69 3.2 W 41 48 22 26 1009.1 1009.1 0.0
17/10:00pm 18.3 10.6 11.4 64 3.8 W 43 48 23 26 1008.9 1008.9 0.0
17/09:30pm 18.8 10.7 11.9 64 3.8 W 46 54 25 29 1008.6 1008.6 0.0
17/09:00pm 19.3 11.8 12.6 65 3.8 W 44 48 24 26 1008.1 1008.1 0.0
17/08:30pm 19.9 12.7 13.1 65 3.9 W 43 48 23 26 1007.7 1007.7 0.0
17/08:00pm 20.2 12.8 12.4 61 4.4 W 43 48 23 26 1007.4 1007.4 0.0
17/07:30pm 20.6 14.5 13.1 62 4.3 W 37 46 20 25 1007.3 1007.3 0.0
17/07:00pm 21.1 14.6 13.0 60 4.6 W 39 46 21 25 1006.8 1006.8 0.0
17/06:30pm 21.4 15.7 15.3 68 3.6 WNW 39 44 21 24 1006.6 1006.6 0.0
17/06:00pm 21.0 14.1 14.6 67 3.8 WNW 44 52 24 28 1006.3 1006.3 0.0
17/05:30pm 21.3 14.5 14.7 66 3.9 WNW 44 54 24 29 1006.2 1006.2 0.0
17/05:00pm 21.3 14.2 14.9 67 3.8 WNW 46 54 25 29 1006.2 1006.2 0.0
17/04:30pm 21.2 13.7 15.1 68 3.6 WNW 48 57 26 31 1006.0 1006.0 0.0
17/04:00pm 21.5 14.1 15.3 68 3.7 WNW 48 56 26 30 1005.9 1005.9 0.0
17/03:30pm 21.8 14.8 15.4 67 3.8 WNW 46 54 25 29 1005.8 1005.8 0.0
17/03:00pm 22.0 16.1 15.6 67 3.8 NW 41 50 22 27 1005.8 1005.8 0.0
17/02:30pm 21.7 16.0 16.2 71 3.3 NW 41 48 22 26 1005.9 1005.9 0.0
17/02:00pm 21.8 16.4 15.9 69 3.6 NW 39 46 21 25 1005.9 1005.9 0.0
17/01:30pm 22.4 17.8 16.2 68 3.8 WNW 35 44 19 24 1005.9 1005.9 0.0
17/01:07pm 22.4 19.9 16.2 68 3.8 NW 24 39 13 21 1005.9 1005.9 0.0
17/01:00pm 21.8 20.7 16.3 71 3.3 NW 17 20 9 11 1006.0 1006.0 0.0
17/12:30pm 21.0 19.0 15.5 71 3.3 NW 20 26 11 14 1006.4 1006.4 0.0
17/12:00pm 21.2 18.4 16.4 74 2.9 WNW 26 32 14 17 1006.6 1006.6 0.0
17/11:30am 21.6 20.5 17.4 77 2.6 NW 19 22 10 12 1006.5 1006.5 0.0
17/11:00am 19.7 19.1 16.7 83 1.8 NNW 15 17 8 9 1006.4 1006.4 0.0
17/10:30am 19.4 19.6 16.8 85 1.6 NNW 11 15 6 8 1006.3 1006.3 0.0
17/10:00am 18.9 19.7 17.2 90 1.0 N 9 13 5 7 1006.3 1006.3 0.0
17/09:30am 17.9 19.3 16.4 91 0.9 WNW 4 9 2 5 1006.5 1006.5 0.0
17/09:00am 17.7 19.1 16.4 92 0.8 S 4 6 2 3 1006.4 1006.4 0.0
17/08:30am 17.2 17.6 16.2 94 0.6 S 9 11 5 6 1006.6 1006.6 0.0
17/08:00am 17.3 17.9 16.7 96 0.4 S 9 11 5 6 1006.6 1006.6 0.0
17/07:30am 16.7 17.1 16.2 97 0.3 SE 9 11 5 6 1006.4 1006.4 0.0
17/07:00am 16.2 16.4 15.7 97 0.3 SSE 9 11 5 6 1005.7 1005.7 0.0
17/06:30am 16.0 16.1 15.5 97 0.3 SSE 9 11 5 6 1005.8 1005.8 0.0
17/06:00am 16.1 15.9 15.6 97 0.3 SSE 11 13 6 7 1005.6 1005.6 0.0
17/05:30am 15.9 16.0 15.4 97 0.3 SE 9 13 5 7 1005.6 1005.6 0.0
17/05:00am 15.5 15.0 14.9 96 0.3 SE 11 13 6 7 1005.8 1005.8 0.0
17/04:30am 16.1 16.2 15.5 96 0.3 ESE 9 13 5 7 1006.1 1006.1 0.0
17/04:00am 16.2 16.3 15.6 96 0.4 E 9 13 5 7 1006.5 1006.5 0.0
17/03:30am 15.7 15.3 15.1 96 0.3 ESE 11 15 6 8 1006.7 1006.7 0.0
17/03:00am 15.8 14.7 15.2 96 0.3 E 15 19 8 10 1006.4 1006.4 0.0
17/02:30am 15.6 14.8 15.0 96 0.3 E 13 17 7 9 1006.9 1006.9 0.0
17/02:00am 16.0 15.2 15.2 95 0.5 E 13 17 7 9 1007.0 1007.0 0.0
17/01:30am 16.2 15.5 15.4 95 0.5 E 13 15 7 8 1007.5 1007.5 0.0
17/01:00am 16.0 15.2 15.2 95 0.5 E 13 15 7 8 1007.4 1007.4 0.0
17/12:30am 15.8 14.5 14.8 94 0.6 E 15 19 8 10 1007.2 1007.2 0.0
17/12:00am 16.1 14.9 15.1 94 0.6 E 15 19 8 10 1007.0 1007.0 0.0
 
Date/Time
EDT
Temp
°C
App
Temp
°C
Dew
Point
°C
Rel
Hum
%
Delta-T
°C
Wind Press
QNH
hPa
Press
MSL
hPa
Rain since
9am
mm
Dir  Spd
km/h
Gust
km/h
Spd
kts
Gust
kts
16/11:30pm 16.7 16.0 15.4 92 0.8 E 13 17 7 9 1007.4 1007.4 0.0
16/11:00pm 17.1 16.6 15.8 92 0.8 E 13 15 7 8 1007.9 1007.9 0.0
16/10:30pm 17.4 17.2 15.7 90 1.0 ENE 11 13 6 7 1008.1 1008.1 0.0
16/10:00pm 17.8 18.0 15.8 88 1.2 NNE 9 11 5 6 1007.9 1007.9 0.0
16/09:30pm 17.9 18.2 15.9 88 1.2 N 9 11 5 6 1007.9 1007.9 0.0
16/09:00pm 18.3 18.3 16.3 88 1.2 N 11 15 6 8 1007.7 1007.7 0.0
16/08:30pm 18.3 17.8 15.9 86 1.4 NNW 13 17 7 9 1007.6 1007.6 0.0
16/08:00pm 18.8 18.0 16.0 84 1.7 N 15 17 8 9 1007.4 1007.4 0.0
16/07:30pm 19.0 18.1 15.9 82 1.8 NNW 15 17 8 9 1007.2 1007.2 0.0
16/07:00pm 19.2 17.4 15.9 81 2.0 NNW 20 24 11 13 1007.2 1007.2 0.0
16/06:30pm 19.9 18.3 16.5 81 2.0 NNW 20 24 11 13 1007.0 1007.0 0.0
16/06:00pm 20.0 18.4 16.0 78 2.4 N 19 20 10 11 1007.1 1007.1 0.0
16/05:30pm 20.2 18.5 16.2 78 2.4 NNW 20 22 11 12 1007.1 1007.1 0.0
16/05:00pm 20.3 19.0 15.9 76 2.6 NNW 17 20 9 11 1007.2 1007.2 0.0
16/04:30pm 20.5 20.2 16.5 78 2.4 NNW 13 17 7 9 1007.1 1007.1 0.0
16/04:00pm 21.8 20.7 17.2 75 2.8 NW 19 20 10 11 1007.5 1007.5 0.0
16/03:30pm 22.1 20.8 16.8 72 3.2 NW 19 22 10 12 1007.6 1007.6 0.0
16/03:00pm 21.7 20.4 16.9 74 2.9 NW 19 22 10 12 1007.8 1007.8 0.0
16/02:30pm 20.7 19.0 16.3 76 2.6 NNW 20 24 11 13 1007.6 1007.6 0.0
16/02:00pm 21.2 20.1 17.2 78 2.5 N 19 20 10 11 1007.8 1007.8 0.0
16/01:30pm 20.6 20.6 18.0 85 1.6 NNE 15 17 8 9 1007.8 1007.8 0.0
16/01:00pm 20.8 20.9 18.4 86 1.5 NNE 15 20 8 11 1007.8 1007.8 0.0
16/12:30pm 20.7 20.6 17.9 84 1.7 NNE 15 17 8 9 1007.9 1007.9 0.0
16/12:00pm 19.4 18.8 17.5 89 1.2 NNE 17 19 9 10 1007.8 1007.8 0.0
16/11:30am 19.5 18.6 17.8 90 1.0 NNE 19 20 10 11 1007.9 1007.9 0.0
16/11:00am 20.2 19.0 18.3 89 1.2 NE 22 24 12 13 1007.7 1007.7 0.0
16/10:30am 19.8 17.3 17.2 85 1.6 NE 26 32 14 17 1007.5 1007.5 0.0
16/10:00am 20.2 16.7 17.4 84 1.7 ENE 32 35 17 19 1006.9 1006.9 0.0
16/09:30am 20.0 15.9 17.4 85 1.6 ENE 35 39 19 21 1007.0 1007.0 0.0
16/09:00am 20.0 16.9 17.4 85 1.6 ENE 30 32 16 17 1006.9 1006.9 0.2
16/08:30am 19.7 18.0 17.3 86 1.5 ENE 22 30 12 16 1006.7 1006.7 0.2
16/08:00am 19.5 18.9 17.5 88 1.2 E 17 20 9 11 1006.3 1006.3 0.2
16/07:30am 19.2 19.2 17.2 88 1.2 E 13 17 7 9 1006.0 1006.0 0.2
16/07:00am 18.0 18.2 16.7 92 0.8 SE 11 15 6 8 1005.7 1005.7 0.2
16/06:30am 18.0 18.3 16.9 93 0.7 SE 11 15 6 8 1005.5 1005.5 0.2
16/06:00am 17.6 17.7 16.6 94 0.6 ESE 11 13 6 7 1005.4 1005.4 0.2
16/05:30am 16.9 15.8 15.4 91 0.9 E 15 19 8 10 1004.9 1004.9 0.2
16/05:00am 18.7 18.6 17.0 90 1.0 WSW 13 15 7 8 1004.2 1004.2 0.2
16/04:30am 18.7 17.9 17.0 90 1.0 W 17 20 9 11 1003.9 1003.9 0.2
16/04:00am 18.4 19.5 17.2 93 0.7 S 7 11 4 6 1003.5 1003.5 0.2
16/03:30am 18.1 19.2 17.0 93 0.7 WSW 7 9 4 5 1003.3 1003.3 0.2
16/03:00am 17.5 17.6 16.4 93 0.7 SSW 11 13 6 7 1003.2 1003.2 0.2
16/02:30am 17.9 17.3 15.7 87 1.3 S 13 15 7 8 1003.2 1003.2 0.2
16/02:00am 19.1 18.0 16.3 84 1.7 WSW 17 20 9 11 1003.0 1003.0 0.2
16/01:30am 19.0 16.1 16.0 83 1.8 W 26 30 14 16 1003.0 1003.0 0.2
16/01:00am 19.2 15.5 17.0 87 1.3 W 32 35 17 19 1002.7 1002.7 0.2
16/12:30am 19.2 15.4 16.6 85 1.6 W 32 35 17 19 1002.9 1002.9 0.2
16/12:00am 19.1 15.1 16.7 86 1.5 W 33 39 18 21 1002.8 1002.8 0.2
 
Date/Time
EDT
Temp
°C
App
Temp
°C
Dew
Point
°C
Rel
Hum
%
Delta-T
°C
Wind Press
QNH
hPa
Press
MSL
hPa
Rain since
9am
mm
Dir  Spd
km/h
Gust
km/h
Spd
kts
Gust
kts
15/11:30pm 19.4 15.6 16.6 84 1.7 W 32 37 17 20 1002.5 1002.5 0.2
15/11:00pm 19.5 15.5 16.7 84 1.7 W 33 39 18 21 1002.2 1002.2 0.2
15/10:30pm 19.6 15.3 17.0 85 1.6 W 35 39 19 21 1001.6 1001.6 0.2
15/10:00pm 20.0 17.2 17.4 85 1.6 W 28 33 15 18 1001.9 1001.9 0.2
15/09:30pm 19.7 17.5 17.8 89 1.2 W 26 32 14 17 1001.8 1001.8 0.2
15/09:00pm 19.8 16.4 17.8 88 1.2 WNW 32 39 17 21 1001.7 1001.7 0.2
15/08:30pm 20.0 16.6 17.8 87 1.4 WNW 32 41 17 22 1001.0 1001.0 0.2
15/08:00pm 20.2 16.7 17.8 86 1.5 WNW 33 39 18 21 1000.1 1000.1 0.2
15/07:30pm 20.0 16.0 17.6 86 1.5 NW 35 43 19 23 1000.3 1000.3 0.2
15/07:12pm 20.2 16.6 17.6 85 1.6 NW 33 39 18 21 1001.1 1001.1 0.2
15/07:09pm 20.3 16.7 17.7 85 1.6 NW 33 39 18 21 1003.1 1003.1 0.2
15/07:00pm 20.1 16.5 17.3 84 1.7 WNW 32 37 17 20 1000.9 1000.9 0.2
15/06:30pm 21.2 19.0 17.8 81 2.1 WNW 26 32 14 17 1000.6 1000.6 0.2
15/06:00pm 21.4 19.1 18.4 83 1.9 WNW 28 33 15 18 1000.9 1000.9 0.2
15/05:30pm 20.8 18.6 18.7 88 1.3 W 28 33 15 18 1001.0 1001.0 0.2
15/05:00pm 20.8 17.6 18.6 87 1.4 WNW 33 39 18 21 1000.8 1000.8 0.2
15/04:30pm 22.2 19.2 19.0 82 2.0 WNW 33 43 18 23 1000.9 1000.9 0.2
15/04:00pm 23.0 21.8 18.5 76 2.8 NW 22 26 12 14 1001.0 1001.0 0.2

Other formats

Comma delimited format used in spreadsheet applications
http://www.bom.gov.au/fwo/IDT60801/IDT60801.95964.axf

JavaScript Object Notation format (JSON) in row-major order
http://www.bom.gov.au/fwo/IDT60801/IDT60801.95964.json

Data quality

Most of these data are generated automatically and are frequently updated. Quality checks on data are not normally performed. It is possible for incorrect values to appear. Refer to information at About Latest Weather Observations and please check the disclaimer before using these data.